Time;durP1;ratioP1;P1;durP2;ratioP2;P2;SDS_P1;SDS_P2;PMS_P1;PMS_P2;Temp;Humidity;BMP_temperature;BMP_pressure;BME280_temperature;BME280_humidity;BME280_pressure;Samples;Min_cycle;Max_cycle;Signal;HPM_P1;HPM_P2
2022/05/11 00:01:41;;;;;;;12.20;8.30;;;;;;;15.70;84.77;100674.45;107071;1288;75869;-86
2022/05/11 00:04:16;;;;;;;10.80;7.20;;;;;;;15.69;84.78;100662.19;107057;1287;71435;-84
2022/05/11 00:06:46;;;;;;;10.10;6.60;;;;;;;15.69;85.10;100652.45;105571;1288;74643;-84
2022/05/11 00:09:14;;;;;;;8.40;6.50;;;;;;;15.69;85.30;100647.67;105547;1288;63353;-88
2022/05/11 00:11:42;;;;;;;16.20;7.30;;;;;;;15.69;85.48;100649.13;105106;1288;62129;-88
2022/05/11 00:14:17;;;;;;;11.60;7.70;;;;;;;15.69;85.46;100653.89;105165;1288;76256;-85
2022/05/11 00:16:44;;;;;;;10.10;7.10;;;;;;;15.69;85.31;100653.31;105376;1288;71496;-85
2022/05/11 00:19:16;;;;;;;10.40;7.70;;;;;;;15.68;85.66;100646.48;105123;1290;73485;-88
2022/05/11 00:21:43;;;;;;;10.00;7.50;;;;;;;15.68;85.60;100646.15;105200;1288;62290;-87
2022/05/11 00:24:10;;;;;;;9.70;7.30;;;;;;;15.67;85.40;100644.72;105163;1288;61952;-85
2022/05/11 00:26:40;;;;;;;9.10;6.90;;;;;;;15.67;85.81;100636.89;105241;1288;75865;-85
2022/05/11 00:29:10;;;;;;;11.40;7.20;;;;;;;15.66;85.78;100638.80;105274;1288;73440;-87
2022/05/11 00:31:37;;;;;;;11.90;7.50;;;;;;;15.66;85.87;100631.72;105259;1288;72506;-87
2022/05/11 00:34:09;;;;;;;8.10;6.50;;;;;;;15.66;85.90;100627.92;105232;1288;62703;-88
2022/05/11 00:36:45;;;;;;;12.10;6.50;;;;;;;15.65;85.94;100629.50;104936;1290;62126;-85
2022/05/11 00:39:16;;;;;;;14.20;7.80;;;;;;;15.65;85.74;100628.06;106142;1288;76140;-83
2022/05/11 00:41:43;;;;;;;10.20;8.50;;;;;;;15.64;85.80;100629.38;106973;1288;72470;-85
2022/05/11 00:44:18;;;;;;;10.20;7.80;;;;;;;15.63;86.13;100638.17;107034;1287;71828;-87
2022/05/11 00:47:00;;;;;;;10.00;7.80;;;;;;;15.63;85.55;100639.33;107028;1287;62525;-89
2022/05/11 00:49:44;;;;;;;9.00;7.20;;;;;;;15.64;85.81;100635.84;107138;1288;60283;-86
2022/05/11 00:52:50;;;;;;;9.70;7.30;;;;;;;15.64;85.89;100632.95;106845;1290;75686;-86
2022/05/11 00:55:40;;;;;;;;;;;;;;;;;;;;;
2022/05/11 00:58:25;;;;;;;12.50;8.70;;;;;;;15.66;85.85;100630.02;106432;1288;74180;-85
2022/05/11 01:00:56;;;;;;;11.40;8.10;;;;;;;15.65;86.02;100628.18;106346;1288;61876;-84
2022/05/11 01:03:37;;;;;;;13.80;9.40;;;;;;;15.65;86.63;100635.83;106573;1287;61185;-86
2022/05/11 01:06:10;;;;;;;14.70;9.40;;;;;;;15.64;87.28;100636.78;106111;1288;76537;-87
2022/05/11 01:08:42;;;;;;;12.70;8.30;;;;;;;15.61;87.94;100641.15;105355;1288;70819;-87
2022/05/11 01:11:12;;;;;;;14.40;10.10;;;;;;;15.59;88.34;100637.45;105156;1290;72976;-83
2022/05/11 01:13:47;;;;;;;11.40;9.00;;;;;;;15.57;88.24;100621.54;104867;1288;63020;-85
2022/05/11 01:16:20;;;;;;;;;;;;;;;15.55;88.50;100612.34;105137;1288;60290;-85
2022/05/11 01:18:48;;;;;;;10.00;6.70;;;;;;;15.53;88.59;100611.56;105055;1288;76280;-85
2022/05/11 01:21:40;;;;;;;9.20;6.60;;;;;;;15.50;89.27;100603.86;105214;1288;72596;-85
2022/05/11 01:24:32;;;;;;;12.40;8.50;;;;;;;15.46;89.41;100610.67;105018;1288;73558;-86
2022/05/11 01:27:47;;;;;;;11.30;8.50;;;;;;;15.45;89.34;100616.67;105046;1288;63256;-86
2022/05/11 01:30:21;;;;;;;12.20;7.40;;;;;;;15.43;89.30;100611.38;105313;1287;62096;-86
2022/05/11 01:33:06;;;;;;;10.50;8.20;;;;;;;15.43;89.63;100606.94;105044;1288;77128;-88
2022/05/11 01:36:13;;;;;;;16.50;9.80;;;;;;;15.42;89.49;100600.31;104942;1288;72751;-86
2022/05/11 01:38:59;;;;;;;11.90;9.70;;;;;;;15.43;89.23;100602.82;104944;1290;74391;-86
2022/05/11 01:41:56;;;;;;;11.70;7.50;;;;;;;15.43;89.11;100595.90;105244;1288;63473;-85
2022/05/11 01:44:26;;;;;;;11.60;8.60;;;;;;;15.42;89.40;100596.73;104983;1289;62155;-85
2022/05/11 01:47:13;;;;;;;13.60;9.00;;;;;;;15.43;89.29;100590.27;105025;1288;75812;-85
2022/05/11 01:49:41;;;;;;;13.00;8.10;;;;;;;15.43;89.17;100587.56;105267;1288;72607;-88
2022/05/11 01:52:12;;;;;;;15.20;8.90;;;;;;;15.43;89.05;100586.54;105003;1290;75475;-86
2022/05/11 01:54:46;;;;;;;14.10;7.50;;;;;;;15.41;88.72;100574.23;105064;1288;62702;-87
2022/05/11 01:57:13;;;;;;;12.10;8.80;;;;;;;15.41;88.72;100573.80;105088;1289;62097;-84
2022/05/11 01:59:40;;;;;;;13.00;8.90;;;;;;;15.41;88.19;100575.67;105188;1288;74411;-85
2022/05/11 02:02:15;;;;;;;13.20;9.00;;;;;;;15.39;87.17;100573.09;105262;1288;73089;-85
2022/05/11 02:10:40;;;;;;;13.40;8.30;;;;;;;15.41;86.57;100567.66;105063;1288;60774;-86
2022/05/11 02:13:19;;;;;;;13.00;7.90;;;;;;;15.41;86.72;100562.15;105250;1288;76441;-86
2022/05/11 02:15:56;;;;;;;;;;;;;;;;;;;;;
2022/05/11 02:18:33;;;;;;;12.40;6.90;;;;;;;15.38;86.92;100555.83;105291;1287;74065;-87
2022/05/11 02:21:09;;;;;;;12.40;8.40;;;;;;;15.37;86.55;100557.35;104956;1288;62296;-86
2022/05/11 02:23:38;;;;;;;8.30;6.20;;;;;;;15.36;86.01;100552.83;105080;1288;62138;-86
2022/05/11 02:26:15;;;;;;;10.00;6.90;;;;;;;15.36;85.69;100545.38;105145;1288;75543;-85
2022/05/11 02:28:42;;;;;;;10.00;6.60;;;;;;;15.35;85.74;100531.73;104886;1291;72404;-85
2022/05/11 02:31:24;;;;;;;11.30;7.10;;;;;;;15.34;85.76;100528.54;105137;1288;73897;-85
2022/05/11 02:33:59;;;;;;;10.10;7.10;;;;;;;15.34;85.87;100525.95;105256;1288;62814;-84
2022/05/11 02:37:06;;;;;;;9.40;6.40;;;;;;;15.34;85.68;100527.39;105469;1288;62126;-86
2022/05/11 02:40:05;;;;;;;;;;;;;;;;;;;;;
2022/05/11 02:43:26;;;;;;;9.50;7.10;;;;;;;15.30;85.37;100533.20;105150;1290;72027;-86
2022/05/11 02:45:54;;;;;;;6.90;5.10;;;;;;;15.28;84.94;100527.58;105225;1288;73595;-85
2022/05/11 02:48:47;;;;;;;10.20;6.70;;;;;;;15.28;84.81;100522.02;105037;1288;64976;-85
2022/05/11 02:51:33;;;;;;;8.80;6.40;;;;;;;15.28;84.57;100520.09;105285;1287;62089;-86
2022/05/11 02:54:19;;;;;;;9.80;6.50;;;;;;;15.28;84.05;100517.73;105004;1290;75771;-88
2022/05/11 02:56:49;;;;;;;8.10;6.20;;;;;;;15.29;83.09;100514.48;104943;1290;73910;-85
2022/05/11 02:59:24;;;;;;;13.20;6.80;;;;;;;15.31;82.49;100516.48;105287;1288;72481;-87
2022/05/11 03:01:56;;;;;;;9.80;5.30;;;;;;;15.29;82.31;100509.64;105168;1290;62254;-86
2022/05/11 03:04:32;;;;;;;14.80;4.90;;;;;;;15.34;82.21;100508.89;104837;1290;62195;-86
2022/05/11 03:07:13;;;;;;;;;;;;;;;;;;;;;
2022/05/11 03:09:59;;;;;;;7.10;5.20;;;;;;;15.36;82.36;100513.56;105084;1288;72502;-86
2022/05/11 03:12:31;;;;;;;7.60;5.80;;;;;;;15.35;82.36;100513.12;105070;1290;71906;-85
2022/05/11 03:15:13;;;;;;;10.40;6.30;;;;;;;15.35;82.50;100508.42;105137;1288;63270;-93
2022/05/11 03:17:49;;;;;;;7.60;5.10;;;;;;;15.35;82.75;100502.96;105079;1288;62122;-85
2022/05/11 03:20:29;;;;;;;9.30;6.80;;;;;;;15.34;82.87;100499.38;105098;1288;76802;-83
2022/05/11 03:23:07;;;;;;;9.50;5.30;;;;;;;15.33;82.99;100497.85;105017;1290;72007;-87
2022/05/11 03:25:37;;;;;;;9.90;5.90;;;;;;;15.32;83.12;100498.55;105301;1288;72931;-84
2022/05/11 03:28:07;;;;;;;8.90;5.90;;;;;;;15.30;83.24;100488.10;106684;1288;61021;-86
2022/05/11 03:30:34;;;;;;;9.90;6.60;;;;;;;15.28;83.46;100485.14;106951;1288;62233;-86
2022/05/11 03:35:50;;;;;;;7.70;5.10;;;;;;;15.26;83.64;100482.16;107194;1289;71852;-86
2022/05/11 03:38:22;;;;;;;10.30;6.70;;;;;;;15.25;84.24;100481.86;106648;1288;73416;-84
2022/05/11 03:40:49;;;;;;;9.20;5.30;;;;;;;15.23;84.09;100475.04;105785;1290;62664;-85
2022/05/11 03:43:16;;;;;;;8.70;5.80;;;;;;;15.21;84.35;100476.44;105745;1288;60430;-85
2022/05/11 03:45:45;;;;;;;9.40;6.70;;;;;;;15.21;84.25;100472.12;105542;1290;74650;-87
2022/05/11 03:48:21;;;;;;;9.60;5.80;;;;;;;15.20;84.47;100469.79;105497;1288;72537;-85
2022/05/11 03:50:56;;;;;;;6.00;5.20;;;;;;;15.18;84.51;100467.86;105687;1288;73722;-84
2022/05/11 03:53:27;;;;;;;8.20;5.00;;;;;;;15.17;84.42;100474.19;105549;1288;63369;-84
2022/05/11 03:56:01;;;;;;;9.40;6.60;;;;;;;15.17;84.38;100466.74;105852;1289;62133;-85
2022/05/11 03:58:28;;;;;;;11.00;5.70;;;;;;;15.17;84.61;100463.96;105844;1288;75743;-84
2022/05/11 04:01:02;;;;;;;9.70;5.60;;;;;;;15.16;84.85;100462.72;105984;1288;71800;-85
2022/05/11 04:03:54;;;;;;;9.40;5.80;;;;;;;15.16;84.82;100460.10;106323;1290;71985;-84
2022/05/11 04:06:26;;;;;;;7.40;5.30;;;;;;;15.17;84.86;100462.89;105626;1290;62342;-84
2022/05/11 04:08:55;;;;;;;7.80;5.40;;;;;;;15.16;84.71;100461.53;105858;1288;60797;-85
2022/05/11 04:11:29;;;;;;;10.80;6.30;;;;;;;15.16;84.57;100466.71;105903;1288;75716;-86
2022/05/11 04:13:56;;;;;;;9.70;6.40;;;;;;;15.17;84.36;100466.91;105755;1290;72441;-88
2022/05/11 04:16:24;;;;;;;7.00;5.00;;;;;;;15.18;84.09;100467.20;106003;1288;72985;-87
2022/05/11 04:18:51;;;;;;;8.30;5.10;;;;;;;15.17;84.20;100466.41;105777;1288;62471;-85
2022/05/11 04:21:20;;;;;;;7.50;5.20;;;;;;;15.17;84.44;100466.46;105705;1288;60842;-88
2022/05/11 04:23:50;;;;;;;7.60;5.00;;;;;;;15.16;84.38;100468.64;105473;1290;75737;-89
2022/05/11 04:26:17;;;;;;;8.10;5.40;;;;;;;15.16;84.78;100466.52;105695;1288;71820;-84
2022/05/11 04:28:54;;;;;;;7.90;5.60;;;;;;;15.18;84.69;100471.48;105708;1288;74042;-89
2022/05/11 04:31:21;;;;;;;6.70;6.00;;;;;;;15.20;84.37;100471.63;105172;1290;62245;-83
2022/05/11 04:33:50;;;;;;;7.20;5.30;;;;;;;15.25;84.21;100470.10;105080;1289;61963;-82
2022/05/11 04:36:17;;;;;;;9.50;5.80;;;;;;;15.29;83.87;100467.79;105014;1290;76052;-79
2022/05/11 04:38:43;;;;;;;9.90;4.80;;;;;;;15.33;83.57;100462.98;104292;1290;71517;-82
2022/05/11 04:41:15;;;;;;;6.10;4.60;;;;;;;15.37;83.06;100466.80;104811;1288;72813;-85
2022/05/11 04:43:42;;;;;;;6.50;4.60;;;;;;;15.41;82.69;100467.32;104980;1288;62056;-81
2022/05/11 04:46:09;;;;;;;7.00;5.40;;;;;;;15.44;82.67;100466.52;104840;1290;61956;-80
2022/05/11 04:48:36;;;;;;;7.20;5.30;;;;;;;15.47;82.45;100464.38;104423;1290;75225;-80
2022/05/11 04:51:07;;;;;;;8.10;5.10;;;;;;;15.50;82.57;100467.16;104839;1290;72442;-80
2022/05/11 04:53:34;;;;;;;8.00;6.50;;;;;;;15.54;82.25;100465.62;104475;1288;74112;-80
2022/05/11 04:56:01;;;;;;;9.00;6.10;;;;;;;15.56;83.01;100463.48;104496;1290;62236;-80
2022/05/11 04:58:47;;;;;;;9.10;6.30;;;;;;;15.58;83.34;100461.66;104960;1290;62112;-80
2022/05/11 05:01:14;;;;;;;9.00;6.10;;;;;;;15.60;83.73;100464.98;104816;1290;75729;-80
2022/05/11 05:04:01;;;;;;;9.20;6.50;;;;;;;15.62;84.17;100467.38;105177;1288;71072;-80
2022/05/11 05:06:32;;;;;;;7.30;5.70;;;;;;;15.60;84.10;100452.84;105039;1288;74619;-81
2022/05/11 05:09:01;;;;;;;7.90;5.10;;;;;;;15.64;84.02;100456.35;104891;1288;62232;-82
2022/05/11 05:11:28;;;;;;;10.80;6.20;;;;;;;15.66;83.34;100455.52;104996;1288;61991;-83
2022/05/11 05:13:58;;;;;;;7.20;5.00;;;;;;;15.70;82.30;100455.34;104991;1290;76150;-84
2022/05/11 05:16:24;;;;;;;7.30;4.40;;;;;;;15.76;81.13;100453.27;105011;1288;71603;-80
2022/05/11 05:19:01;;;;;;;13.70;5.60;;;;;;;15.83;80.70;100452.07;104903;1290;75691;-85
2022/05/11 05:21:32;;;;;;;7.40;5.30;;;;;;;15.90;79.66;100456.43;104797;1289;63774;-80
2022/05/11 05:23:59;;;;;;;7.10;5.50;;;;;;;15.98;78.88;100454.98;104913;1290;62046;-80
2022/05/11 05:26:27;;;;;;;7.20;5.20;;;;;;;16.06;78.13;100455.84;104522;1288;75698;-80
2022/05/11 05:31:40;;;;;;;7.70;5.10;;;;;;;16.22;76.84;100455.16;104927;1289;74161;-80
2022/05/11 05:34:07;;;;;;;8.80;5.10;;;;;;;16.29;76.79;100453.68;104458;1288;62273;-80
2022/05/11 05:36:36;;;;;;;7.70;4.90;;;;;;;16.35;76.55;100452.36;104776;1290;62092;-80
2022/05/11 05:39:05;;;;;;;10.80;5.80;;;;;;;16.41;76.51;100455.98;105070;1289;76783;-81
2022/05/11 05:41:33;;;;;;;6.50;4.20;;;;;;;16.45;76.02;100454.46;104873;1288;72720;-78
2022/05/11 05:44:06;;;;;;;10.90;5.60;;;;;;;16.50;75.92;100448.27;104723;1290;74977;-80
2022/05/11 05:46:34;;;;;;;7.90;5.60;;;;;;;16.57;75.88;100452.90;104710;1288;63108;-80
2022/05/11 05:49:12;;;;;;;8.80;5.00;;;;;;;16.62;75.65;100453.96;104282;1288;62073;-78
2022/05/11 05:51:46;;;;;;;7.80;5.80;;;;;;;16.66;75.59;100458.86;104868;1290;77077;-81
2022/05/11 05:54:16;;;;;;;13.00;5.30;;;;;;;16.76;75.87;100460.98;105242;1288;72586;-85
2022/05/11 05:56:42;;;;;;;7.60;5.50;;;;;;;16.82;75.65;100464.89;105539;1288;74458;-85
2022/05/11 05:59:10;;;;;;;7.30;4.80;;;;;;;16.86;74.93;100461.18;105183;1288;63209;-83
2022/05/11 06:01:40;;;;;;;11.40;5.70;;;;;;;16.90;74.94;100461.66;105352;1288;61978;-82
2022/05/11 06:04:10;;;;;;;6.50;4.70;;;;;;;16.95;75.09;100457.93;105269;1290;75969;-83
2022/05/11 06:06:36;;;;;;;7.40;4.90;;;;;;;17.00;74.99;100452.79;105653;1288;71452;-84
2022/05/11 06:09:04;;;;;;;9.70;5.70;;;;;;;17.07;75.08;100453.73;105534;1288;72344;-83
2022/05/11 06:11:33;;;;;;;5.30;4.10;;;;;;;17.17;75.16;100449.45;105247;1289;62246;-82
2022/05/11 06:14:00;;;;;;;10.60;5.30;;;;;;;17.23;75.15;100439.39;105171;1289;62222;-88
2022/05/11 06:16:27;;;;;;;9.60;5.70;;;;;;;17.36;74.83;100442.50;105249;1288;75897;-88
2022/05/11 06:18:53;;;;;;;8.60;6.00;;;;;;;17.44;74.65;100436.98;105063;1287;71474;-83
2022/05/11 06:21:20;;;;;;;11.80;7.20;;;;;;;17.53;74.42;100430.14;105165;1288;73447;-84
2022/05/11 06:23:51;;;;;;;10.90;6.90;;;;;;;17.61;74.03;100426.48;104980;1288;63267;-83
2022/05/11 06:26:18;;;;;;;9.20;6.40;;;;;;;17.68;73.79;100423.88;105348;1288;62018;-83
2022/05/11 06:28:47;;;;;;;5.60;4.20;;;;;;;17.75;73.70;100419.11;104942;1291;74405;-83
2022/05/11 06:31:16;;;;;;;8.40;5.30;;;;;;;17.79;73.16;100419.83;105132;1290;72521;-81
2022/05/11 06:33:49;;;;;;;9.50;7.00;;;;;;;17.87;73.46;100424.39;104994;1288;73221;-84
2022/05/11 06:36:16;;;;;;;7.80;5.40;;;;;;;17.99;73.51;100416.20;105054;1288;60749;-84
2022/05/11 06:38:43;;;;;;;7.00;4.30;;;;;;;18.10;73.54;100413.76;104765;1288;62087;-82
2022/05/11 06:41:12;;;;;;;9.00;4.70;;;;;;;18.20;73.24;100414.56;105054;1288;75737;-81
2022/05/11 06:43:39;;;;;;;9.50;5.60;;;;;;;18.25;72.66;100411.73;104697;1288;72774;-82
2022/05/11 06:46:09;;;;;;;7.70;5.00;;;;;;;18.32;72.58;100410.72;105104;1287;72920;-81
2022/05/11 06:48:35;;;;;;;6.10;5.00;;;;;;;18.38;72.47;100408.42;104932;1289;62479;-80
2022/05/11 06:51:06;;;;;;;10.10;5.00;;;;;;;18.43;72.79;100409.20;104984;1288;62003;-82
2022/05/11 06:59:20;;;;;;;6.60;5.00;;;;;;;18.49;72.77;100410.04;105415;1287;77053;-85
2022/05/11 06:59:23;;;;;;;;;;;;;;;18.61;72.68;100400.23;105048;1287;74055;-84
2022/05/11 07:01:53;;;;;;;10.80;4.40;;;;;;;18.66;72.74;100400.10;104943;1288;63584;-82
2022/05/11 07:04:23;;;;;;;11.70;8.10;;;;;;;18.76;72.52;100398.64;105149;1288;62123;-82
2022/05/11 07:06:52;;;;;;;7.80;5.00;;;;;;;18.86;72.23;100396.88;105389;1288;76075;-81
2022/05/11 07:09:24;;;;;;;8.10;5.20;;;;;;;18.97;72.02;100392.75;105148;1288;71374;-80
2022/05/11 07:14:38;;;;;;;9.50;6.90;;;;;;;19.17;71.53;100387.71;105230;1288;62315;-83
2022/05/11 07:17:06;;;;;;;6.90;5.10;;;;;;;19.27;71.20;100389.69;105181;1287;62260;-81
2022/05/11 07:19:33;;;;;;;9.10;5.30;;;;;;;19.37;70.59;100394.60;104933;1288;75313;-82
2022/05/11 07:22:01;;;;;;;8.70;5.70;;;;;;;19.49;70.54;100391.28;105225;1288;72711;-81
2022/05/11 07:24:28;;;;;;;8.10;6.50;;;;;;;19.63;70.87;100383.77;105248;1288;71837;-83
2022/05/11 07:26:57;;;;;;;9.80;6.40;;;;;;;19.80;70.92;100380.27;105240;1288;63867;-83
2022/05/11 07:29:24;;;;;;;8.90;6.10;;;;;;;19.96;70.83;100372.52;105311;1288;62052;-82
2022/05/11 07:31:50;;;;;;;13.10;7.00;;;;;;;20.13;69.77;100371.48;105374;1289;62195;-82
2022/05/11 07:34:17;;;;;;;8.10;5.50;;;;;;;20.29;69.48;100373.38;105377;1288;62094;-82
2022/05/11 07:36:44;;;;;;;7.90;5.50;;;;;;;20.48;68.92;100371.83;104928;1288;73136;-82
2022/05/11 07:39:11;;;;;;;8.90;5.10;;;;;;;20.67;67.87;100369.02;105107;1288;62117;-83
2022/05/11 07:41:38;;;;;;;7.80;6.00;;;;;;;20.84;65.71;100362.89;104961;1288;61986;-79
2022/05/11 07:44:05;;;;;;;8.30;4.60;;;;;;;20.98;64.19;100358.46;105064;1290;75843;-80
2022/05/11 07:46:34;;;;;;;9.10;6.10;;;;;;;21.09;63.56;100360.74;105435;1288;71351;-83
2022/05/11 07:49:05;;;;;;;6.90;5.30;;;;;;;21.20;61.10;100357.95;107144;1288;73023;-81
2022/05/11 07:51:32;;;;;;;9.20;5.50;;;;;;;21.25;59.58;100357.63;105832;1288;62081;-82
2022/05/11 07:53:59;;;;;;;10.00;4.60;;;;;;;21.32;59.11;100354.50;105299;1287;62066;-83
2022/05/11 08:01:59;;;;;;;5.50;4.40;;;;;;;21.10;56.76;100346.52;105222;1287;74650;-83
2022/05/11 08:04:26;;;;;;;7.40;5.00;;;;;;;21.14;56.35;100343.10;105248;1288;62031;-83
2022/05/11 08:06:53;;;;;;;8.70;5.30;;;;;;;21.20;56.47;100345.21;104993;1288;60147;-80
2022/05/11 08:09:20;;;;;;;7.40;4.50;;;;;;;21.22;55.82;100342.68;104846;1288;75780;-81
2022/05/11 08:11:47;;;;;;;6.10;4.90;;;;;;;21.20;55.76;100340.09;104937;1288;71548;-81
2022/05/11 08:14:14;;;;;;;8.20;4.90;;;;;;;21.14;56.30;100338.57;104758;1290;74490;-82
2022/05/11 08:16:52;;;;;;;8.10;4.70;;;;;;;21.10;57.20;100334.54;105100;1288;61162;-85
2022/05/11 08:19:21;;;;;;;7.00;5.40;;;;;;;21.11;57.67;100328.41;104990;1289;60766;-88
2022/05/11 08:21:49;;;;;;;8.50;5.50;;;;;;;21.18;57.38;100331.70;105175;1288;76957;-86
2022/05/11 08:24:17;;;;;;;5.30;4.70;;;;;;;21.18;57.10;100325.34;104949;1288;70892;-84
2022/05/11 08:26:46;;;;;;;11.80;5.50;;;;;;;21.32;57.97;100321.75;106463;1288;73164;-84
2022/05/11 08:34:46;;;;;;;6.30;4.50;;;;;;;21.65;55.98;100315.77;106927;1289;76476;-85
2022/05/11 08:37:13;;;;;;;8.40;3.60;;;;;;;21.72;53.08;100315.44;105972;1288;70117;-83
2022/05/11 08:39:41;;;;;;;6.60;4.00;;;;;;;21.78;50.21;100319.36;105403;1287;72981;-84
2022/05/11 08:42:08;;;;;;;6.40;3.60;;;;;;;21.85;50.28;100319.31;105311;1288;62071;-84
2022/05/11 08:44:41;;;;;;;6.00;4.20;;;;;;;21.95;52.61;100311.83;104880;1291;62111;-85
2022/05/11 08:47:30;;;;;;;8.10;4.10;;;;;;;22.09;50.79;100310.89;105336;1288;75625;-84
2022/05/11 08:50:12;;;;;;;7.80;3.60;;;;;;;22.10;49.60;100308.19;105140;1288;71609;-84
2022/05/11 08:52:47;;;;;;;4.60;3.70;;;;;;;22.14;49.33;100307.29;105211;1288;73034;-83
2022/05/11 08:55:29;;;;;;;5.80;2.90;;;;;;;22.22;49.36;100306.64;105151;1288;60965;-84
2022/05/11 08:58:04;;;;;;;5.60;3.50;;;;;;;22.27;48.37;100308.74;105117;1290;61996;-84
2022/05/11 09:00:31;;;;;;;7.50;3.60;;;;;;;22.32;48.75;100300.98;106096;1288;76950;-85
2022/05/11 09:03:11;;;;;;;7.50;5.20;;;;;;;22.41;49.67;100302.33;105203;1289;71409;-85
2022/05/11 09:05:39;;;;;;;5.60;4.00;;;;;;;22.47;51.46;100301.38;105156;1288;73979;-84
2022/05/11 09:08:10;;;;;;;7.80;4.60;;;;;;;22.57;52.22;100296.77;105069;1288;61870;-86
2022/05/11 09:10:39;;;;;;;5.20;4.10;;;;;;;22.66;51.11;100292.42;105366;1288;63474;-84
2022/05/11 09:13:11;;;;;;;7.80;4.50;;;;;;;22.67;50.52;100296.05;105332;1288;75884;-84
2022/05/11 09:15:55;;;;;;;4.70;4.10;;;;;;;22.67;50.89;100296.77;105443;1288;71384;-86
2022/05/11 09:18:39;;;;;;;10.00;4.20;;;;;;;22.68;48.83;100300.01;105470;1288;73160;-86
2022/05/11 09:21:36;;;;;;;6.80;3.80;;;;;;;22.71;47.65;100289.85;105055;1288;62057;-87
2022/05/11 09:24:13;;;;;;;6.40;4.00;;;;;;;22.66;47.11;100294.54;104999;1288;62100;-83
2022/05/11 09:26:44;;;;;;;7.70;3.70;;;;;;;22.69;47.50;100290.27;105000;1288;75731;-86
2022/05/11 09:29:20;;;;;;;7.30;3.30;;;;;;;22.75;47.27;100290.56;104922;1288;72413;-83
2022/05/11 09:31:52;;;;;;;8.40;3.30;;;;;;;22.85;47.23;100281.63;104946;1288;75130;-85
2022/05/11 09:34:28;;;;;;;7.40;3.80;;;;;;;22.94;46.68;100287.98;104919;1288;62115;-84
2022/05/11 09:37:03;;;;;;;6.30;3.10;;;;;;;23.03;45.79;100285.03;104991;1288;62147;-84
2022/05/11 09:39:33;;;;;;;8.60;3.30;;;;;;;23.10;45.19;100285.91;104851;1288;76141;-84
2022/05/11 09:42:24;;;;;;;10.30;3.60;;;;;;;23.20;45.43;100291.34;104368;1288;475076;-85
2022/05/11 09:44:52;;;;;;;7.50;4.00;;;;;;;23.22;44.56;100288.36;104804;1288;73925;-86
2022/05/11 09:47:34;;;;;;;5.60;3.40;;;;;;;23.21;44.91;100282.14;104802;1287;62020;-85
2022/05/11 09:50:34;;;;;;;5.30;3.60;;;;;;;23.23;45.43;100288.04;104826;1287;62069;-85
2022/05/11 09:53:16;;;;;;;6.90;4.00;;;;;;;23.23;45.03;100282.09;104536;1288;75280;-86
2022/05/11 09:55:43;;;;;;;5.00;4.30;;;;;;;23.15;45.62;100274.52;104609;1291;71890;-85
2022/05/11 09:58:09;;;;;;;6.80;3.70;;;;;;;23.19;45.84;100276.56;104778;1288;71436;-83
2022/05/11 10:00:39;;;;;;;4.90;3.20;;;;;;;23.24;46.68;100266.13;104852;1288;62132;-84
2022/05/11 10:03:16;;;;;;;4.40;2.70;;;;;;;23.42;46.77;100262.29;105699;1287;62073;-89
2022/05/11 10:05:49;;;;;;;3.90;3.20;;;;;;;23.54;46.68;100263.52;105317;1288;75547;-86
2022/05/11 10:08:32;;;;;;;7.00;4.20;;;;;;;23.56;46.21;100258.66;105058;1288;72505;-87
2022/05/11 10:11:25;;;;;;;4.80;3.70;;;;;;;23.64;45.72;100266.61;105427;1288;72706;-87
2022/05/11 10:22:57;;;;;;;5.70;3.50;;;;;;;24.44;44.49;100237.20;106886;1288;73429;-85
2022/05/11 10:25:39;;;;;;;5.70;3.30;;;;;;;24.65;42.64;100238.46;106473;1287;73045;-84
2022/05/11 10:28:27;;;;;;;5.00;2.80;;;;;;;24.84;42.08;100232.12;105148;1288;60690;-82
2022/05/11 10:31:26;;;;;;;5.30;3.10;;;;;;;25.04;41.37;100235.77;105131;1290;62064;-84
2022/05/11 10:33:59;;;;;;;5.70;4.10;;;;;;;25.17;41.22;100233.19;105304;1288;75065;-84
2022/05/11 10:36:54;;;;;;;6.70;3.10;;;;;;;25.21;41.78;100230.66;104871;1290;72856;-84
2022/05/11 10:39:57;;;;;;;5.80;3.50;;;;;;;25.37;40.93;100225.92;104951;1288;72134;-84
2022/05/11 10:42:39;;;;;;;7.50;3.60;;;;;;;25.48;41.22;100223.66;104965;1288;62123;-87
2022/05/11 10:45:30;;;;;;;4.30;2.60;;;;;;;25.58;40.20;100217.86;105023;1288;62206;-85
2022/05/11 10:48:25;;;;;;;4.50;2.50;;;;;;;25.60;39.54;100217.73;104865;1290;76122;-86
2022/05/11 10:51:11;;;;;;;6.90;2.80;;;;;;;25.53;37.78;100222.25;105090;1288;71360;-86
2022/05/11 10:53:46;;;;;;;5.00;1.90;;;;;;;25.54;38.12;100216.05;104775;1289;73491;-84
2022/05/11 10:56:39;;;;;;;3.90;1.80;;;;;;;25.62;37.58;100219.45;105167;1286;60260;-87
2022/05/11 10:59:46;;;;;;;5.10;1.70;;;;;;;25.50;36.47;100228.91;105021;1290;62061;-84
2022/05/11 11:02:49;;;;;;;8.80;2.10;;;;;;;25.53;35.89;100218.40;107017;1288;74677;-83
2022/05/11 11:05:26;;;;;;;3.40;1.80;;;;;;;25.64;36.43;100211.61;106966;1288;70459;-84
2022/05/11 11:08:04;;;;;;;6.60;1.90;;;;;;;25.67;35.83;100226.52;106927;1288;73268;-83
2022/05/11 11:10:58;;;;;;;6.30;2.50;;;;;;;25.59;36.01;100211.00;107113;1288;60431;-84
2022/05/11 11:13:34;;;;;;;5.20;2.60;;;;;;;25.73;36.46;100208.08;106429;1288;62215;-85
2022/05/11 11:16:02;;;;;;;5.50;2.10;;;;;;;25.85;36.26;100208.94;105184;1288;77958;-83
2022/05/11 11:18:39;;;;;;;6.30;2.20;;;;;;;25.88;35.89;100201.31;105099;1288;72061;-85
2022/05/11 11:21:09;;;;;;;11.00;2.50;;;;;;;25.66;35.87;100209.96;105223;1288;74470;-84
2022/05/11 11:23:39;;;;;;;6.50;2.20;;;;;;;25.62;36.46;100198.64;105052;1288;62156;-83
2022/05/11 11:26:33;;;;;;;4.80;2.20;;;;;;;25.65;37.04;100196.55;104954;1288;62138;-83
2022/05/11 11:29:00;;;;;;;5.60;1.90;;;;;;;25.52;36.91;100201.58;104977;1288;76925;-86
2022/05/11 11:31:28;;;;;;;7.00;2.80;;;;;;;25.39;36.77;100208.65;104916;1288;60683;-84
2022/05/11 11:34:04;;;;;;;5.60;2.50;;;;;;;25.36;37.33;100190.37;104955;1288;72929;-84
2022/05/11 11:36:37;;;;;;;4.10;2.10;;;;;;;25.40;37.43;100203.09;105044;1288;62174;-84
2022/05/11 11:39:09;;;;;;;4.40;2.10;;;;;;;25.56;37.31;100197.30;105202;1287;62174;-84
2022/05/11 11:41:42;;;;;;;5.10;2.00;;;;;;;25.78;37.39;100202.77;105176;1288;78660;-87
2022/05/11 11:44:30;;;;;;;7.80;2.60;;;;;;;25.89;35.53;100198.37;105494;1288;71986;-86
2022/05/11 11:46:59;;;;;;;4.30;2.10;;;;;;;25.94;35.93;100199.67;105976;1287;73283;-89
2022/05/11 11:49:28;;;;;;;3.30;1.90;;;;;;;25.95;36.03;100205.65;105126;1290;62266;-89
2022/05/11 11:51:59;;;;;;;5.60;2.00;;;;;;;26.13;35.31;100207.08;105520;1287;62090;-87
2022/05/11 11:54:29;;;;;;;6.10;2.00;;;;;;;26.11;35.41;100191.27;105268;1288;75998;-87
2022/05/11 11:57:00;;;;;;;6.70;2.00;;;;;;;26.13;35.96;100199.73;105109;1288;72592;-87
2022/05/11 11:59:30;;;;;;;4.00;2.10;;;;;;;26.33;35.16;100199.73;105187;1288;72983;-86
2022/05/11 12:02:16;;;;;;;6.00;2.60;;;;;;;26.25;35.10;100194.41;105081;1288;62228;-86
2022/05/11 12:04:59;;;;;;;6.30;2.40;;;;;;;26.17;35.02;100192.66;105115;1290;62036;-86
2022/05/11 12:16:00;;;;;;;6.70;2.80;;;;;;;27.32;33.25;100188.37;105060;1288;62260;-87
2022/05/11 12:18:30;;;;;;;7.00;2.40;;;;;;;27.30;33.43;100187.15;104986;1288;62243;-87
2022/05/11 12:20:58;;;;;;;2.20;1.70;;;;;;;27.08;33.85;100187.30;105217;1290;75715;-88
2022/05/11 12:23:33;;;;;;;5.60;2.20;;;;;;;27.16;33.77;100189.38;105181;1288;72500;-86
2022/05/11 12:26:06;;;;;;;6.70;2.40;;;;;;;27.48;33.54;100179.10;104888;1288;74307;-85
2022/05/11 12:28:42;;;;;;;6.60;2.40;;;;;;;27.85;32.52;100183.64;105259;1288;62228;-86
2022/05/11 12:31:21;;;;;;;4.10;2.20;;;;;;;27.96;32.33;100175.63;105670;1288;61937;-86
2022/05/11 12:33:54;;;;;;;2.80;2.00;;;;;;;28.26;31.72;100164.70;105283;1287;76167;-87
2022/05/11 12:36:35;;;;;;;3.80;2.00;;;;;;;28.53;32.35;100175.45;105118;1288;73421;-86
2022/05/11 12:39:02;;;;;;;4.60;1.60;;;;;;;28.67;29.91;100190.33;104981;1288;72992;-90
2022/05/11 12:41:29;;;;;;;4.80;2.00;;;;;;;28.74;30.07;100178.07;105007;1287;61820;-83